SWA194 KDEN-KMCO
Flight info
| Callsign | SWA194 |
|---|---|
| Flight time | N/A |
| Altitude | 35000 |
| Route | EPKEE7 DUUZE JAMEY RZC/N0440F370 KM27K MGMRY DEEDA GRNCH5 |
| Aircraft | B738/M-SDE2E3FGHIRWXY/LB1 |
Departure
| Time | N/A |
|---|---|
| Airport | Denver International Airport (KDEN) |
Arrival
| Time | 2026-05-05 17:14 |
|---|---|
| Airport | Orlando International Airport (KMCO) |
| Time | Latitude | Longitude | Altitude | Speed | Heading |
|---|---|---|---|---|---|
| 2026-05-05 16:32 | 31.24211 | -83.95409 | 35150 ft | 529 kts | 105° |
| 2026-05-05 16:32 | 31.22966 | -83.91337 | 35147 ft | 535 kts | 105° |
| 2026-05-05 16:32 | 31.20396 | -83.83088 | 35132 ft | 542 kts | 106° |
| 2026-05-05 16:33 | 31.17796 | -83.74824 | 35121 ft | 541 kts | 106° |
| 2026-05-05 16:33 | 31.15202 | -83.66621 | 35120 ft | 536 kts | 106° |
| 2026-05-05 16:34 | 31.12632 | -83.58498 | 35121 ft | 537 kts | 106° |
| 2026-05-05 16:34 | 31.10040 | -83.50336 | 35119 ft | 534 kts | 106° |
| 2026-05-05 16:35 | 31.07441 | -83.42205 | 35116 ft | 535 kts | 106° |
| 2026-05-05 16:35 | 31.04855 | -83.34134 | 35109 ft | 532 kts | 106° |
| 2026-05-05 16:36 | 31.02258 | -83.26054 | 35104 ft | 532 kts | 106° |
| 2026-05-05 16:36 | 30.99666 | -83.17974 | 35101 ft | 531 kts | 105° |
| 2026-05-05 16:37 | 30.97070 | -83.09908 | 35102 ft | 531 kts | 106° |
| 2026-05-05 16:37 | 30.94469 | -83.01896 | 35109 ft | 531 kts | 106° |
| 2026-05-05 16:38 | 30.91851 | -82.93854 | 35116 ft | 530 kts | 106° |
| 2026-05-05 16:38 | 30.88566 | -82.86106 | 35115 ft | 539 kts | 121° |
| 2026-05-05 16:39 | 30.83493 | -82.79701 | 35125 ft | 539 kts | 141° |
| 2026-05-05 16:39 | 30.77462 | -82.74535 | 35128 ft | 537 kts | 147° |
| 2026-05-05 16:40 | 30.71413 | -82.69427 | 35127 ft | 538 kts | 146° |
| 2026-05-05 16:40 | 30.65458 | -82.64216 | 35125 ft | 538 kts | 145° |
| 2026-05-05 16:41 | 30.59497 | -82.58910 | 35124 ft | 539 kts | 144° |
| 2026-05-05 16:41 | 30.53554 | -82.53586 | 35126 ft | 539 kts | 144° |
| 2026-05-05 16:42 | 30.47656 | -82.48302 | 35124 ft | 537 kts | 144° |
| 2026-05-05 16:42 | 30.42805 | -82.43948 | 35118 ft | 519 kts | 144° |
| 2026-05-05 16:43 | 30.39052 | -82.40588 | 35112 ft | 501 kts | 144° |
| 2026-05-05 16:43 | 30.36320 | -82.38147 | 35112 ft | 493 kts | 144° |
| 2026-05-05 16:43 | 30.31813 | -82.34129 | 35121 ft | 492 kts | 144° |
| 2026-05-05 16:44 | 30.26386 | -82.29298 | 35125 ft | 494 kts | 144° |
| 2026-05-05 16:44 | 30.20745 | -82.24728 | 34171 ft | 501 kts | 155° |
| 2026-05-05 16:45 | 30.17537 | -82.23019 | 33179 ft | 509 kts | 165° |
| 2026-05-05 16:45 | 30.14142 | -82.21994 | 32675 ft | 499 kts | 175° |
| 2026-05-05 16:45 | 30.10749 | -82.21424 | 32390 ft | 489 kts | 179° |
| 2026-05-05 16:45 | 30.07384 | -82.20948 | 32037 ft | 485 kts | 180° |
| 2026-05-05 16:46 | 30.04049 | -82.20473 | 31651 ft | 482 kts | 179° |
| 2026-05-05 16:46 | 30.00740 | -82.19866 | 31277 ft | 480 kts | 177° |
| 2026-05-05 16:46 | 29.97460 | -82.19213 | 30915 ft | 477 kts | 176° |
| 2026-05-05 16:46 | 29.94199 | -82.18567 | 30565 ft | 473 kts | 176° |
| 2026-05-05 16:47 | 29.90967 | -82.17925 | 30211 ft | 469 kts | 176° |
| 2026-05-05 16:47 | 29.87760 | -82.17286 | 29890 ft | 465 kts | 176° |
| 2026-05-05 16:47 | 29.84586 | -82.16654 | 29551 ft | 461 kts | 176° |
| 2026-05-05 16:47 | 29.81427 | -82.16024 | 29210 ft | 457 kts | 176° |
| 2026-05-05 16:48 | 29.78306 | -82.15400 | 28876 ft | 453 kts | 176° |
| 2026-05-05 16:48 | 29.75208 | -82.14782 | 28524 ft | 450 kts | 176° |
| 2026-05-05 16:48 | 29.72128 | -82.14168 | 28171 ft | 446 kts | 176° |
| 2026-05-05 16:48 | 29.69113 | -82.13568 | 27837 ft | 442 kts | 176° |
| 2026-05-05 16:49 | 29.66097 | -82.12969 | 27513 ft | 438 kts | 176° |
| 2026-05-05 16:49 | 29.63097 | -82.12374 | 27165 ft | 435 kts | 177° |
| 2026-05-05 16:49 | 29.60130 | -82.11785 | 26820 ft | 431 kts | 177° |
| 2026-05-05 16:49 | 29.57185 | -82.11201 | 26486 ft | 427 kts | 177° |
| 2026-05-05 16:50 | 29.54262 | -82.10622 | 26156 ft | 424 kts | 177° |
| 2026-05-05 16:50 | 29.51366 | -82.10049 | 25812 ft | 420 kts | 177° |
| 2026-05-05 16:50 | 29.48497 | -82.09481 | 25468 ft | 417 kts | 177° |
| 2026-05-05 16:50 | 29.45646 | -82.08916 | 25140 ft | 413 kts | 178° |
| 2026-05-05 16:51 | 29.42833 | -82.08360 | 24813 ft | 410 kts | 178° |
| 2026-05-05 16:51 | 29.40020 | -82.07805 | 24474 ft | 406 kts | 178° |
| 2026-05-05 16:51 | 29.37247 | -82.07258 | 24132 ft | 403 kts | 178° |
| 2026-05-05 16:51 | 29.34526 | -82.06721 | 23769 ft | 398 kts | 178° |
| 2026-05-05 16:52 | 29.31815 | -82.06054 | 23235 ft | 400 kts | 172° |
| 2026-05-05 16:52 | 29.29171 | -82.05029 | 22719 ft | 401 kts | 164° |
| 2026-05-05 16:52 | 29.26652 | -82.03656 | 22255 ft | 400 kts | 157° |
| 2026-05-05 16:52 | 29.24244 | -82.02064 | 21814 ft | 396 kts | 154° |
| 2026-05-05 16:53 | 29.21876 | -82.00494 | 21343 ft | 392 kts | 155° |
| 2026-05-05 16:53 | 29.19521 | -81.98966 | 20889 ft | 387 kts | 155° |
| 2026-05-05 16:53 | 29.17171 | -81.97463 | 20429 ft | 382 kts | 155° |
| 2026-05-05 16:53 | 29.14885 | -81.96013 | 19988 ft | 378 kts | 155° |
| 2026-05-05 16:54 | 29.12590 | -81.94565 | 19522 ft | 374 kts | 155° |
| 2026-05-05 16:54 | 29.10322 | -81.93139 | 19076 ft | 369 kts | 155° |
| 2026-05-05 16:54 | 29.08080 | -81.91695 | 18622 ft | 366 kts | 152° |
| 2026-05-05 16:54 | 29.05991 | -81.90042 | 18171 ft | 365 kts | 145° |
| 2026-05-05 16:55 | 29.04104 | -81.88128 | 17728 ft | 362 kts | 138° |
| 2026-05-05 16:55 | 29.02338 | -81.86128 | 17280 ft | 359 kts | 139° |
| 2026-05-05 16:55 | 29.00534 | -81.84170 | 16836 ft | 355 kts | 139° |
| 2026-05-05 16:55 | 28.98756 | -81.82236 | 16400 ft | 351 kts | 137° |
| 2026-05-05 16:56 | 28.97125 | -81.80156 | 15970 ft | 349 kts | 131° |
| 2026-05-05 16:56 | 28.95660 | -81.77998 | 15499 ft | 347 kts | 129° |
| 2026-05-05 16:56 | 28.94215 | -81.75803 | 15116 ft | 342 kts | 129° |
| 2026-05-05 16:56 | 28.92774 | -81.73637 | 14770 ft | 339 kts | 129° |
| 2026-05-05 16:57 | 28.91343 | -81.71504 | 14435 ft | 339 kts | 129° |
| 2026-05-05 16:57 | 28.89904 | -81.69365 | 14098 ft | 339 kts | 129° |
| 2026-05-05 16:57 | 28.88487 | -81.67264 | 13766 ft | 338 kts | 129° |
| 2026-05-05 16:57 | 28.87055 | -81.65143 | 13434 ft | 336 kts | 129° |
| 2026-05-05 16:58 | 28.85628 | -81.63031 | 13100 ft | 335 kts | 129° |
| 2026-05-05 16:58 | 28.84205 | -81.60924 | 12769 ft | 334 kts | 129° |
| 2026-05-05 16:58 | 28.82784 | -81.58822 | 12440 ft | 332 kts | 129° |
| 2026-05-05 16:58 | 28.81371 | -81.56741 | 12112 ft | 330 kts | 129° |
| 2026-05-05 16:59 | 28.79851 | -81.54805 | 11794 ft | 326 kts | 139° |
| 2026-05-05 16:59 | 28.78093 | -81.53239 | 11708 ft | 314 kts | 148° |
| 2026-05-05 16:59 | 28.76268 | -81.52006 | 11634 ft | 303 kts | 154° |
| 2026-05-05 16:59 | 28.74396 | -81.50931 | 11502 ft | 296 kts | 156° |
| 2026-05-05 17:00 | 28.72559 | -81.49888 | 11268 ft | 293 kts | 156° |
| 2026-05-05 17:00 | 28.70743 | -81.48837 | 10993 ft | 292 kts | 155° |
| 2026-05-05 17:00 | 28.68940 | -81.47780 | 10716 ft | 290 kts | 155° |
| 2026-05-05 17:00 | 28.67181 | -81.46742 | 10480 ft | 287 kts | 154° |
| 2026-05-05 17:01 | 28.65431 | -81.45701 | 10406 ft | 278 kts | 153° |
| 2026-05-05 17:01 | 28.63754 | -81.44697 | 10337 ft | 269 kts | 154° |
| 2026-05-05 17:01 | 28.62112 | -81.43719 | 10170 ft | 263 kts | 155° |
| 2026-05-05 17:01 | 28.60430 | -81.42945 | 9931 ft | 260 kts | 165° |
| 2026-05-05 17:02 | 28.58682 | -81.42480 | 9704 ft | 257 kts | 171° |
| 2026-05-05 17:02 | 28.56900 | -81.42262 | 9454 ft | 255 kts | 179° |
| 2026-05-05 17:02 | 28.55130 | -81.42240 | 9195 ft | 254 kts | 182° |
| 2026-05-05 17:02 | 28.53369 | -81.42289 | 8930 ft | 253 kts | 182° |
| 2026-05-05 17:03 | 28.51614 | -81.42331 | 8676 ft | 251 kts | 182° |
| 2026-05-05 17:03 | 28.49868 | -81.42361 | 8404 ft | 251 kts | 181° |
| 2026-05-05 17:03 | 28.48145 | -81.42382 | 8154 ft | 249 kts | 181° |
| 2026-05-05 17:03 | 28.46411 | -81.42396 | 7879 ft | 248 kts | 181° |
| 2026-05-05 17:04 | 28.44687 | -81.42406 | 7620 ft | 247 kts | 180° |
| 2026-05-05 17:04 | 28.42974 | -81.42412 | 7361 ft | 246 kts | 180° |
| 2026-05-05 17:04 | 28.41266 | -81.42415 | 7094 ft | 245 kts | 180° |
| 2026-05-05 17:04 | 28.39569 | -81.42417 | 6826 ft | 244 kts | 180° |
| 2026-05-05 17:05 | 28.37885 | -81.42418 | 6681 ft | 237 kts | 180° |
| 2026-05-05 17:05 | 28.36258 | -81.42419 | 6499 ft | 232 kts | 179° |
| 2026-05-05 17:05 | 28.34653 | -81.42421 | 6265 ft | 230 kts | 179° |
| 2026-05-05 17:05 | 28.33059 | -81.42423 | 6012 ft | 228 kts | 179° |
| 2026-05-05 17:06 | 28.31469 | -81.42425 | 5746 ft | 228 kts | 179° |
| 2026-05-05 17:06 | 28.29883 | -81.42427 | 5481 ft | 227 kts | 179° |
| 2026-05-05 17:06 | 28.28311 | -81.42430 | 5166 ft | 231 kts | 179° |
| 2026-05-05 17:06 | 28.26686 | -81.42431 | 4796 ft | 234 kts | 178° |
| 2026-05-05 17:07 | 28.25049 | -81.42434 | 4460 ft | 236 kts | 178° |
| 2026-05-05 17:07 | 28.23399 | -81.42434 | 4109 ft | 237 kts | 177° |
| 2026-05-05 17:07 | 28.21890 | -81.41942 | 3974 ft | 225 kts | 144° |
| 2026-05-05 17:07 | 28.21002 | -81.40549 | 3990 ft | 218 kts | 110° |
| 2026-05-05 17:08 | 28.20708 | -81.38875 | 4015 ft | 216 kts | 95° |
| 2026-05-05 17:08 | 28.20759 | -81.37176 | 4013 ft | 217 kts | 86° |
| 2026-05-05 17:08 | 28.20878 | -81.35449 | 4011 ft | 221 kts | 86° |
| 2026-05-05 17:08 | 28.20999 | -81.33710 | 4002 ft | 220 kts | 85° |
| 2026-05-05 17:09 | 28.21118 | -81.32006 | 3998 ft | 215 kts | 86° |
| 2026-05-05 17:09 | 28.21246 | -81.30328 | 3991 ft | 212 kts | 81° |
| 2026-05-05 17:09 | 28.21952 | -81.28894 | 3942 ft | 212 kts | 45° |
| 2026-05-05 17:09 | 28.23265 | -81.28117 | 3808 ft | 217 kts | 17° |
| 2026-05-05 17:10 | 28.24725 | -81.27957 | 3546 ft | 216 kts | 1° |
| 2026-05-05 17:10 | 28.26225 | -81.28036 | 3246 ft | 214 kts | 359° |
| 2026-05-05 17:10 | 28.27702 | -81.28076 | 2956 ft | 210 kts | 360° |
| 2026-05-05 17:10 | 28.29147 | -81.28094 | 2666 ft | 205 kts | 1° |
| 2026-05-05 17:11 | 28.30550 | -81.28110 | 2393 ft | 199 kts | 1° |
| 2026-05-05 17:11 | 28.31921 | -81.28125 | 2119 ft | 193 kts | 1° |
| 2026-05-05 17:11 | 28.33237 | -81.28140 | 1873 ft | 184 kts | 1° |
| 2026-05-05 17:11 | 28.34466 | -81.28153 | 1629 ft | 175 kts | 1° |
| 2026-05-05 17:12 | 28.35671 | -81.28166 | 1387 ft | 170 kts | 2° |
| 2026-05-05 17:12 | 28.36843 | -81.28180 | 1179 ft | 165 kts | 1° |
| 2026-05-05 17:12 | 28.37969 | -81.28192 | 954 ft | 160 kts | 1° |
| 2026-05-05 17:12 | 28.39072 | -81.28204 | 731 ft | 156 kts | 1° |
| 2026-05-05 17:13 | 28.40138 | -81.28216 | 526 ft | 154 kts | 1° |
| 2026-05-05 17:13 | 28.41219 | -81.28263 | 273 ft | 157 kts | 360° |
| 2026-05-05 17:13 | 28.42296 | -81.28242 | 107 ft | 151 kts | 359° |
| 2026-05-05 17:13 | 28.43207 | -81.28243 | 104 ft | 91 kts | 357° |
| 2026-05-05 17:14 | 28.43515 | -81.28311 | 104 ft | 18 kts | 316° |
| 2026-05-05 17:14 | 28.43605 | -81.28376 | 104 ft | 12 kts | 349° |
| 2026-05-05 17:14 | 28.43678 | -81.28378 | 104 ft | 14 kts | 5° |
| 2026-05-05 17:14 | 28.43791 | -81.28374 | 104 ft | 14 kts | 359° |
| 2026-05-05 17:15 | 28.43856 | -81.28390 | 104 ft | 8 kts | 314° |
| 2026-05-05 17:15 | 28.43876 | -81.28476 | 104 ft | 12 kts | 269° |
| 2026-05-05 17:15 | 28.43877 | -81.28552 | 104 ft | 8 kts | 269° |
| 2026-05-05 17:15 | 28.43875 | -81.28645 | 104 ft | 14 kts | 269° |
| 2026-05-05 17:16 | 28.43873 | -81.28743 | 104 ft | 10 kts | 269° |
| 2026-05-05 17:16 | 28.43870 | -81.28872 | 104 ft | 24 kts | 269° |
| 2026-05-05 17:16 | 28.43871 | -81.29089 | 104 ft | 27 kts | 270° |
| 2026-05-05 17:16 | 28.43870 | -81.29192 | 104 ft | 12 kts | 268° |
| 2026-05-05 17:17 | 28.43835 | -81.29261 | 104 ft | 10 kts | 193° |
| 2026-05-05 17:17 | 28.43744 | -81.29262 | 104 ft | 22 kts | 179° |
| 2026-05-05 17:17 | 28.43602 | -81.29260 | 104 ft | 13 kts | 181° |
| 2026-05-05 17:17 | 28.43551 | -81.29324 | 104 ft | 17 kts | 271° |
| 2026-05-05 17:18 | 28.43551 | -81.29480 | 104 ft | 20 kts | 269° |
| 2026-05-05 17:18 | 28.43549 | -81.29619 | 104 ft | 15 kts | 268° |
| 2026-05-05 17:18 | 28.43548 | -81.29718 | 104 ft | 10 kts | 269° |
| 2026-05-05 17:18 | 28.43549 | -81.29817 | 104 ft | 17 kts | 271° |
| 2026-05-05 17:19 | 28.43494 | -81.29887 | 104 ft | 11 kts | 187° |
| 2026-05-05 17:19 | 28.43422 | -81.29886 | 104 ft | 12 kts | 179° |
| 2026-05-05 17:19 | 28.43363 | -81.29896 | 104 ft | 6 kts | 220° |
| 2026-05-05 17:19 | 28.43370 | -81.29955 | 104 ft | 7 kts | 307° |
| 2026-05-05 17:20 | 28.43387 | -81.29981 | 104 ft | 1 kts | 309° |
| 2026-05-05 17:20 | 28.43395 | -81.29992 | 104 ft | 2 kts | 309° |
| 2026-05-05 17:20 | 28.43395 | -81.29993 | 104 ft | 0 kts | 308° |